Time;durP1;ratioP1;P1;durP2;ratioP2;P2;SDS_P1;SDS_P2;PMS_P1;PMS_P2;Temp;Humidity;BMP_temperature;BMP_pressure;BME280_temperature;BME280_humidity;BME280_pressure;Samples;Min_cycle;Max_cycle;Signal;HPM_P1;HPM_P2
2023/05/21 00:02:10;;;;;;;6.40;3.20;;;11.60;1.00;;;;;;5014450;28;20930;-50
2023/05/21 00:04:40;;;;;;;8.87;3.50;;;11.50;1.00;;;;;;5015257;28;20474;-50
2023/05/21 00:07:07;;;;;;;11.10;2.80;;;11.50;1.00;;;;;;5015079;28;20451;-50
2023/05/21 00:09:33;;;;;;;7.70;3.20;;;11.40;1.00;;;;;;5015420;28;20475;-50
2023/05/21 00:11:58;;;;;;;7.13;3.17;;;11.40;1.00;;;;;;5015707;28;20514;-50
2023/05/21 00:14:24;;;;;;;6.30;3.00;;;11.40;1.00;;;;;;5014949;28;21306;-49
2023/05/21 00:16:49;;;;;;;7.20;3.97;;;11.30;1.00;;;;;;5016051;28;20176;-50
2023/05/21 00:19:15;;;;;;;5.43;2.90;;;11.30;47.50;;;;;;5015242;28;20184;-50
2023/05/21 00:21:41;;;;;;;11.63;2.90;;;11.20;55.50;;;;;;5015387;28;20183;-50
2023/05/21 00:24:07;;;;;;;5.43;2.90;;;11.20;39.30;;;;;;5018873;28;20212;-50
2023/05/21 00:26:32;;;;;;;2.87;2.57;;;11.20;50.50;;;;;;5019125;28;20640;-49
2023/05/21 00:28:58;;;;;;;5.17;2.57;;;11.20;44.50;;;;;;5018641;28;20184;-50
2023/05/21 00:31:23;;;;;;;5.33;2.87;;;11.10;44.80;;;;;;5020019;28;20190;-50
2023/05/21 00:33:49;;;;;;;5.40;3.27;;;11.10;85.00;;;;;;5019146;28;20180;-50
2023/05/21 00:36:15;;;;;;;8.60;3.30;;;11.10;94.30;;;;;;5018592;28;20203;-50
2023/05/21 00:38:44;;;;;;;6.47;3.43;;;11.10;99.90;;;;;;5019882;28;20439;-50
2023/05/21 00:41:10;;;;;;;6.13;3.20;;;11.10;99.90;;;;;;5019881;28;20184;-50
2023/05/21 00:43:39;;;;;;;4.10;2.63;;;11.20;99.90;;;;;;5018650;28;20958;-49
2023/05/21 00:46:06;;;;;;;3.70;2.77;;;11.10;99.90;;;;;;5014908;28;20442;-51
2023/05/21 00:48:32;;;;;;;5.70;3.00;;;11.20;99.90;;;;;;5017807;28;20435;-50
2023/05/21 00:50:58;;;;;;;4.60;2.80;;;11.20;99.90;;;;;;5015386;28;20525;-50
2023/05/21 00:53:23;;;;;;;6.87;2.87;;;11.20;99.90;;;;;;5014964;28;20196;-50
2023/05/21 00:55:50;;;;;;;6.50;3.00;;;11.10;99.90;;;;;;5014852;28;20184;-50
2023/05/21 00:58:16;;;;;;;5.77;2.80;;;11.10;99.90;;;;;;5014965;28;20671;-50
2023/05/21 01:00:42;;;;;;;4.17;2.73;;;11.10;99.90;;;;;;5014519;28;20522;-49
2023/05/21 01:03:09;;;;;;;6.90;3.50;;;11.10;99.90;;;;;;5019445;28;20545;-50
2023/05/21 01:05:35;;;;;;;10.07;3.70;;;11.10;99.90;;;;;;5020407;28;20246;-50
2023/05/21 01:08:01;;;;;;;6.67;3.70;;;11.10;99.90;;;;;;5016868;28;20435;-50
2023/05/21 01:10:27;;;;;;;6.03;3.20;;;11.10;99.90;;;;;;5026808;28;20460;-50
2023/05/21 01:12:56;;;;;;;5.97;3.03;;;11.10;99.90;;;;;;5020294;28;20461;-50
2023/05/21 01:15:22;;;;;;;7.13;3.40;;;11.10;99.90;;;;;;5018779;28;20710;-50
2023/05/21 01:17:48;;;;;;;4.30;2.73;;;11.10;99.90;;;;;;5016212;28;21009;-50
2023/05/21 01:20:19;;;;;;;5.13;3.10;;;11.10;99.90;;;;;;5020411;28;20270;-50
2023/05/21 01:22:54;;;;;;;7.73;3.10;;;11.10;99.90;;;;;;5016181;28;20437;-49
2023/05/21 01:25:23;;;;;;;5.13;3.17;;;11.10;99.90;;;;;;5016067;28;20954;-49
2023/05/21 01:27:50;;;;;;;7.77;3.10;;;11.10;99.90;;;;;;5016642;28;20787;-50
2023/05/21 01:30:18;;;;;;;6.33;2.90;;;11.10;99.90;;;;;;5015825;28;20907;-50
2023/05/21 01:32:48;;;;;;;6.67;3.00;;;11.10;99.90;;;;;;5015100;28;20493;-50
2023/05/21 01:35:20;;;;;;;27.13;4.80;;;11.10;99.90;;;;;;5015904;28;20486;-50
2023/05/21 01:37:56;;;;;;;9.00;3.60;;;11.10;99.90;;;;;;5018873;28;20466;-50
2023/05/21 01:40:24;;;;;;;6.47;3.10;;;11.00;99.90;;;;;;5015277;28;20446;-50
2023/05/21 01:42:50;;;;;;;8.60;3.20;;;11.00;99.90;;;;;;5023241;28;20436;-50
2023/05/21 01:45:17;;;;;;;4.70;2.30;;;11.00;99.90;;;;;;5022249;28;20440;-50
2023/05/21 01:47:48;;;;;;;5.43;3.03;;;11.10;99.90;;;;;;5016476;28;20470;-50
2023/05/21 01:50:15;;;;;;;6.77;2.90;;;11.00;99.90;;;;;;5015319;28;20541;-50
2023/05/21 01:52:48;;;;;;;5.57;3.17;;;10.90;99.90;;;;;;5015531;28;20480;-50
2023/05/21 01:55:14;;;;;;;10.30;3.50;;;10.90;99.90;;;;;;5016318;28;20485;-50
2023/05/21 01:57:39;;;;;;;4.40;2.97;;;10.90;99.90;;;;;;5015944;28;20825;-50
2023/05/21 02:00:06;;;;;;;4.17;2.70;;;10.80;99.90;;;;;;5015061;28;20355;-50
2023/05/21 02:02:32;;;;;;;5.30;2.57;;;10.80;99.90;;;;;;5015589;28;20249;-50
2023/05/21 02:04:57;;;;;;;5.20;3.37;;;10.80;99.90;;;;;;5015137;28;20576;-49
2023/05/21 02:07:23;;;;;;;8.23;3.17;;;10.70;99.90;;;;;;5015313;28;20640;-50
2023/05/21 02:09:48;;;;;;;5.60;2.80;;;10.80;99.90;;;;;;5015672;28;20550;-50
2023/05/21 02:12:14;;;;;;;7.37;3.43;;;10.70;99.90;;;;;;5015717;28;20596;-50
2023/05/21 02:14:40;;;;;;;7.77;3.10;;;10.70;1.00;;;;;;5015441;28;20180;-50
2023/05/21 02:17:06;;;;;;;8.60;2.97;;;10.70;1.00;;;;;;5015438;28;20184;-50
2023/05/21 02:19:32;;;;;;;6.80;3.27;;;10.70;1.00;;;;;;5015685;28;20227;-50
2023/05/21 02:21:58;;;;;;;7.43;2.97;;;10.70;1.00;;;;;;5018588;28;20470;-49
2023/05/21 02:24:23;;;;;;;8.90;3.40;;;10.70;1.00;;;;;;5014970;28;20234;-50
2023/05/21 02:26:50;;;;;;;6.57;2.90;;;10.70;1.00;;;;;;5022326;28;20633;-50
2023/05/21 02:29:15;;;;;;;5.80;3.07;;;10.80;1.00;;;;;;5019035;28;20719;-50
2023/05/21 02:31:42;;;;;;;6.43;3.20;;;10.80;1.00;;;;;;5019005;28;20466;-50
2023/05/21 02:34:07;;;;;;;6.20;3.53;;;10.80;1.00;;;;;;5018530;28;20207;-50
2023/05/21 02:36:34;;;;;;;6.83;3.47;;;10.80;1.00;;;;;;5018759;28;20435;-50
2023/05/21 02:39:00;;;;;;;7.03;3.13;;;10.80;1.00;;;;;;5018207;28;20190;-49
2023/05/21 02:41:26;;;;;;;6.60;3.20;;;10.70;1.00;;;;;;5018421;28;20430;-50
2023/05/21 02:43:51;;;;;;;7.10;3.67;;;10.70;1.00;;;;;;5018768;28;20219;-50
2023/05/21 02:46:17;;;;;;;6.43;3.70;;;10.70;1.00;;;;;;5018980;28;20275;-50
2023/05/21 02:48:42;;;;;;;11.30;3.70;;;10.70;1.00;;;;;;5018293;28;20231;-50
2023/05/21 02:51:08;;;;;;;8.60;3.80;;;10.70;1.00;;;;;;5018525;28;20236;-50
2023/05/21 02:53:34;;;;;;;8.10;3.50;;;10.60;43.20;;;;;;5018729;28;20514;-50
2023/05/21 02:56:00;;;;;;;8.53;3.70;;;10.60;99.90;;;;;;5018328;28;20195;-50
2023/05/21 02:58:26;;;;;;;16.67;3.83;;;10.60;99.90;;;;;;5018309;28;20523;-50
2023/05/21 03:00:52;;;;;;;5.73;3.10;;;10.60;99.90;;;;;;5021755;28;20192;-50
2023/05/21 03:03:18;;;;;;;12.83;3.70;;;10.60;99.90;;;;;;5018318;28;20485;-50
2023/05/21 03:05:44;;;;;;;10.37;4.40;;;10.60;99.90;;;;;;5017869;28;20428;-49
2023/05/21 03:08:10;;;;;;;5.23;3.30;;;10.70;99.90;;;;;;5017967;28;20188;-50
2023/05/21 03:10:36;;;;;;;5.90;3.10;;;10.70;99.90;;;;;;5018244;28;20439;-50
2023/05/21 03:13:03;;;;;;;7.30;2.97;;;10.70;99.90;;;;;;5017339;28;20742;-50
2023/05/21 03:15:32;;;;;;;7.83;4.13;;;10.70;99.90;;;;;;5017779;28;20187;-50
2023/05/21 03:17:58;;;;;;;6.77;3.60;;;10.70;99.90;;;;;;5021334;28;20437;-50
2023/05/21 03:20:23;;;;;;;12.80;4.90;;;10.70;99.90;;;;;;5018027;28;20445;-50
2023/05/21 03:22:49;;;;;;;7.30;4.27;;;10.60;99.90;;;;;;5017817;28;20430;-51
2023/05/21 03:25:15;;;;;;;5.80;3.70;;;10.70;99.90;;;;;;5017433;28;20234;-50
2023/05/21 03:27:40;;;;;;;7.37;3.80;;;10.70;99.90;;;;;;5017863;28;20188;-50
2023/05/21 03:30:06;;;;;;;9.03;4.43;;;10.70;99.90;;;;;;5017467;28;20187;-50
2023/05/21 03:32:36;;;;;;;7.80;3.93;;;10.70;99.90;;;;;;5017974;28;20235;-50
2023/05/21 03:35:03;;;;;;;5.90;3.83;;;10.60;99.90;;;;;;5021618;28;20903;-50
2023/05/21 03:37:29;;;;;;;9.70;4.07;;;10.60;1.00;;;;;;5018560;28;20455;-50
2023/05/21 03:39:54;;;;;;;13.00;4.10;;;10.70;1.00;;;;;;5020973;28;20465;-50
2023/05/21 03:42:20;;;;;;;8.20;4.50;;;10.60;1.00;;;;;;5017074;28;20188;-50
2023/05/21 03:44:46;;;;;;;7.80;4.40;;;10.60;1.00;;;;;;5020863;28;20211;-50
2023/05/21 03:47:11;;;;;;;10.73;3.97;;;10.60;1.00;;;;;;5017565;28;20196;-49
2023/05/21 03:49:37;;;;;;;6.13;4.23;;;10.70;1.00;;;;;;5017857;28;20673;-50
2023/05/21 03:52:02;;;;;;;7.70;4.20;;;10.70;1.00;;;;;;5017759;28;20238;-50
2023/05/21 03:54:28;;;;;;;9.90;4.30;;;10.80;1.00;;;;;;5016750;28;20193;-50
2023/05/21 03:56:53;;;;;;;15.10;4.67;;;10.70;1.00;;;;;;5017329;28;20180;-50
2023/05/21 03:59:19;;;;;;;10.30;4.20;;;10.80;1.00;;;;;;5016885;28;20658;-49
2023/05/21 04:01:45;;;;;;;13.13;4.93;;;10.80;1.00;;;;;;5017061;28;20554;-51
2023/05/21 04:04:10;;;;;;;11.00;4.97;;;10.90;1.00;;;;;;5017211;28;20311;-50
2023/05/21 04:06:37;;;;;;;11.40;4.63;;;11.00;1.00;;;;;;5016777;28;20640;-50
2023/05/21 04:09:03;;;;;;;15.87;4.40;;;11.00;1.00;;;;;;5017185;28;20192;-49
2023/05/21 04:11:30;;;;;;;10.53;4.30;;;11.10;37.60;;;;;;5017782;28;20939;-50
2023/05/21 04:13:55;;;;;;;11.70;5.13;;;11.20;16.50;;;;;;5016050;28;20479;-50
2023/05/21 04:16:23;;;;;;;12.40;5.17;;;11.30;1.00;;;;;;5017012;28;20467;-50
2023/05/21 04:18:48;;;;;;;8.37;4.60;;;11.40;1.00;;;;;;5016808;28;20254;-49
2023/05/21 04:21:15;;;;;;;15.30;5.03;;;11.60;1.00;;;;;;5021775;28;20841;-50
2023/05/21 04:23:40;;;;;;;13.20;4.73;;;11.70;99.90;;;;;;5023002;28;20257;-51
2023/05/21 04:26:06;;;;;;;11.30;5.63;;;11.70;99.90;;;;;;5020465;28;20494;-50
2023/05/21 04:28:32;;;;;;;11.17;5.30;;;11.70;99.90;;;;;;5020947;28;20192;-49
2023/05/21 04:30:57;;;;;;;7.60;3.80;;;11.90;99.90;;;;;;5020581;28;20430;-49
2023/05/21 04:33:24;;;;;;;12.33;4.30;;;11.90;45.70;;;;;;5016662;28;20663;-50
2023/05/21 04:35:50;;;;;;;12.53;4.60;;;11.90;1.60;;;;;;5017006;28;20219;-50
2023/05/21 04:38:18;;;;;;;8.90;4.43;;;12.00;1.00;;;;;;5015917;28;20443;-50
2023/05/21 04:40:52;;;;;;;8.63;4.87;;;12.10;1.00;;;;;;5016170;28;23987;-50
2023/05/21 04:43:24;;;;;;;10.33;4.70;;;12.10;1.00;;;;;;5019890;28;20498;-49
2023/05/21 04:45:50;;;;;;;10.27;4.63;;;12.20;1.00;;;;;;5016242;28;20440;-50
2023/05/21 04:48:16;;;;;;;9.53;4.23;;;12.30;1.00;;;;;;5016567;28;20431;-50
2023/05/21 04:50:42;;;;;;;11.30;5.37;;;12.50;1.00;;;;;;5014860;28;20572;-50
2023/05/21 04:53:08;;;;;;;11.50;5.77;;;12.70;1.00;;;;;;5020219;28;21002;-50
2023/05/21 04:55:38;;;;;;;9.70;4.40;;;12.80;1.00;;;;;;5020579;28;20203;-50
2023/05/21 04:58:05;;;;;;;13.20;5.40;;;13.00;99.90;;;;;;5019949;28;20599;-50
2023/05/21 05:00:32;;;;;;;13.70;5.47;;;13.20;99.90;;;;;;5019785;28;20434;-50
2023/05/21 05:02:58;;;;;;;8.70;4.70;;;13.30;99.90;;;;;;5019586;28;20440;-50
2023/05/21 05:05:23;;;;;;;10.60;5.50;;;13.40;99.90;;;;;;5017003;28;20789;-50
2023/05/21 05:07:49;;;;;;;8.83;4.73;;;13.50;99.90;;;;;;5020621;28;20589;-50
2023/05/21 05:10:15;;;;;;;9.10;5.50;;;13.60;99.90;;;;;;5017276;28;20188;-50
2023/05/21 05:12:40;;;;;;;11.47;5.87;;;13.70;92.10;;;;;;5018500;28;20644;-50
2023/05/21 05:15:06;;;;;;;11.77;5.80;;;13.80;64.00;;;;;;5015614;28;20272;-50
2023/05/21 05:17:33;;;;;;;9.73;5.33;;;13.90;38.40;;;;;;5015300;28;20546;-50
2023/05/21 05:19:58;;;;;;;9.17;4.90;;;14.00;20.10;;;;;;5018299;28;20444;-50
2023/05/21 05:22:24;;;;;;;9.27;5.10;;;14.00;9.70;;;;;;5015995;28;20462;-51
2023/05/21 05:24:50;;;;;;;10.30;4.57;;;14.10;1.00;;;;;;5015804;28;20212;-50
2023/05/21 05:27:16;;;;;;;7.20;4.43;;;14.30;1.00;;;;;;5015408;28;20318;-50
2023/05/21 05:29:43;;;;;;;9.57;5.17;;;14.30;1.00;;;;;;5019709;28;20283;-50
2023/05/21 05:32:09;;;;;;;10.43;5.07;;;14.50;1.00;;;;;;5019760;28;20447;-50
2023/05/21 05:34:35;;;;;;;11.50;5.40;;;14.50;1.00;;;;;;5015790;28;20802;-50
2023/05/21 05:37:01;;;;;;;13.40;5.40;;;14.50;1.00;;;;;;5019792;28;20209;-50
2023/05/21 05:39:27;;;;;;;9.17;5.90;;;14.50;1.00;;;;;;5015272;28;20908;-50
2023/05/21 05:41:53;;;;;;;9.20;5.33;;;14.60;1.00;;;;;;5015853;28;20604;-50
2023/05/21 05:44:18;;;;;;;8.57;5.33;;;14.70;1.00;;;;;;5018439;28;20227;-50
2023/05/21 05:46:44;;;;;;;8.70;5.17;;;14.90;1.00;;;;;;5021139;28;20527;-50
2023/05/21 05:49:09;;;;;;;10.20;5.73;;;15.10;1.00;;;;;;5015402;28;20191;-50
2023/05/21 05:51:36;;;;;;;7.70;5.23;;;15.30;1.00;;;;;;5015604;28;20664;-50
2023/05/21 05:54:01;;;;;;;11.30;5.93;;;15.50;1.00;;;;;;5016165;28;20183;-50
2023/05/21 05:56:27;;;;;;;10.67;5.60;;;15.60;1.00;;;;;;5015122;28;20426;-50
2023/05/21 05:58:52;;;;;;;10.23;5.43;;;15.80;1.00;;;;;;5019269;28;20182;-50
2023/05/21 06:01:18;;;;;;;12.20;5.67;;;15.70;1.00;;;;;;5018158;28;20283;-50
2023/05/21 06:03:44;;;;;;;8.10;5.50;;;15.70;1.00;;;;;;5019236;28;20612;-50
2023/05/21 06:06:10;;;;;;;7.87;5.33;;;15.70;1.00;;;;;;5019149;28;20193;-50
2023/05/21 06:08:36;;;;;;;11.00;5.97;;;15.80;1.00;;;;;;5023603;28;20232;-50
2023/05/21 06:11:02;;;;;;;10.23;6.30;;;16.00;1.00;;;;;;5026207;28;20444;-50
2023/05/21 06:13:27;;;;;;;11.20;6.03;;;16.20;1.00;;;;;;5023796;28;21025;-50
2023/05/21 06:15:53;;;;;;;11.07;5.63;;;16.50;1.00;;;;;;5019116;28;20185;-50
2023/05/21 06:18:19;;;;;;;8.20;5.87;;;16.80;1.00;;;;;;5025265;28;20288;-50
2023/05/21 06:20:44;;;;;;;9.73;5.33;;;17.00;1.00;;;;;;5020134;28;20641;-51
2023/05/21 06:23:10;;;;;;;12.40;6.43;;;17.20;1.00;;;;;;5018927;28;20638;-50
2023/05/21 06:25:36;;;;;;;8.07;6.00;;;17.50;1.00;;;;;;5023338;28;20277;-51
2023/05/21 06:28:02;;;;;;;8.20;5.97;;;17.70;1.00;;;;;;5019338;28;20270;-50
2023/05/21 06:30:27;;;;;;;8.77;5.50;;;17.90;1.00;;;;;;5018531;28;20478;-51
2023/05/21 06:32:53;;;;;;;14.80;7.20;;;18.00;1.00;;;;;;5019286;28;20185;-51
2023/05/21 06:35:19;;;;;;;9.07;6.10;;;18.00;1.00;;;;;;5018457;28;20642;-51
2023/05/21 06:37:45;;;;;;;9.77;6.13;;;17.90;1.00;;;;;;5018781;28;20217;-51
2023/05/21 06:40:10;;;;;;;10.67;7.03;;;18.00;1.00;;;;;;5018833;28;20206;-50
2023/05/21 06:42:36;;;;;;;11.43;6.33;;;18.10;1.00;;;;;;5018436;28;20491;-51
2023/05/21 06:45:02;;;;;;;14.67;6.60;;;18.00;1.00;;;;;;5021914;28;20301;-51
2023/05/21 06:47:27;;;;;;;10.17;6.00;;;18.00;1.00;;;;;;5019402;28;20187;-50
2023/05/21 06:49:53;;;;;;;8.53;6.50;;;18.10;1.00;;;;;;5018431;28;20215;-52
2023/05/21 06:52:18;;;;;;;10.33;5.50;;;18.00;1.00;;;;;;5018192;28;20249;-50
2023/05/21 06:54:44;;;;;;;12.63;7.40;;;18.00;1.00;;;;;;5018576;28;20670;-52
2023/05/21 06:57:10;;;;;;;19.40;8.37;;;18.00;1.00;;;;;;5017891;28;20196;-52
2023/05/21 06:59:35;;;;;;;9.53;6.90;;;17.90;1.00;;;;;;5018059;28;20194;-52
2023/05/21 07:02:01;;;;;;;11.23;7.73;;;18.00;1.00;;;;;;5018486;28;20195;-51
2023/05/21 07:04:26;;;;;;;13.47;8.37;;;18.10;1.00;;;;;;5018584;28;20676;-50
2023/05/21 07:06:53;;;;;;;11.50;8.00;;;18.20;1.00;;;;;;5017605;28;20215;-51
2023/05/21 07:09:18;;;;;;;13.73;6.50;;;18.10;1.00;;;;;;5018261;28;20219;-50
2023/05/21 07:11:44;;;;;;;9.57;7.43;;;18.30;1.00;;;;;;5017854;28;20433;-51
2023/05/21 07:14:10;;;;;;;12.20;7.43;;;18.30;1.00;;;;;;5017371;28;20258;-51
2023/05/21 07:16:35;;;;;;;12.20;8.07;;;18.40;1.00;;;;;;5018192;28;20191;-50
2023/05/21 07:19:01;;;;;;;11.90;8.67;;;18.50;1.00;;;;;;5017853;28;20233;-51
2023/05/21 07:21:27;;;;;;;11.50;8.03;;;18.60;1.00;;;;;;5017979;28;20528;-52
2023/05/21 07:23:52;;;;;;;11.43;7.97;;;18.60;1.00;;;;;;5017463;28;20228;-52
2023/05/21 07:26:18;;;;;;;15.43;7.70;;;18.70;1.00;;;;;;5017702;28;20187;-51
2023/05/21 07:28:44;;;;;;;16.63;9.13;;;18.90;1.00;;;;;;5017547;28;20302;-52
2023/05/21 07:31:11;;;;;;;12.63;9.67;;;19.10;1.00;;;;;;5017490;28;20556;-52
2023/05/21 07:33:36;;;;;;;14.00;9.20;;;19.30;1.00;;;;;;5017698;28;21000;-51
2023/05/21 07:36:03;;;;;;;16.93;9.30;;;19.30;1.00;;;;;;5017295;28;20442;-52
2023/05/21 07:38:28;;;;;;;11.53;9.40;;;19.50;1.00;;;;;;5017531;28;20631;-52
2023/05/21 07:40:54;;;;;;;12.10;9.20;;;19.60;1.00;;;;;;5017479;28;20456;-52
2023/05/21 07:43:20;;;;;;;14.03;8.83;;;19.70;1.00;;;;;;5017238;28;20265;-53
2023/05/21 07:45:45;;;;;;;13.33;9.57;;;19.90;1.00;;;;;;5017381;28;20664;-51
2023/05/21 07:48:11;;;;;;;12.37;8.63;;;20.10;1.00;;;;;;5018034;28;20186;-52
2023/05/21 07:50:36;;;;;;;12.70;8.90;;;20.40;99.90;;;;;;5017355;28;20246;-52
2023/05/21 07:53:02;;;;;;;17.00;10.33;;;20.90;99.90;;;;;;5017109;28;20189;-53
2023/05/21 07:55:28;;;;;;;13.77;9.87;;;21.30;99.90;;;;;;5017670;28;20188;-53
2023/05/21 07:57:53;;;;;;;14.00;10.60;;;21.50;99.90;;;;;;5017135;28;20542;-53
2023/05/21 08:00:21;;;;;;;11.57;9.50;;;21.80;99.90;;;;;;5017351;28;20212;-53
2023/05/21 08:02:47;;;;;;;17.73;11.97;;;21.90;99.90;;;;;;5017134;28;20201;-51
2023/05/21 08:05:12;;;;;;;13.60;9.60;;;22.00;99.90;;;;;;5016587;28;20469;-53
2023/05/21 08:07:38;;;;;;;14.80;10.33;;;22.10;99.90;;;;;;5020939;28;20185;-52
2023/05/21 08:10:04;;;;;;;16.77;12.00;;;22.10;99.90;;;;;;5019534;28;20185;-53
2023/05/21 08:12:30;;;;;;;14.80;11.27;;;22.00;99.90;;;;;;5016701;28;20441;-52
2023/05/21 08:14:58;;;;;;;17.53;12.10;;;22.10;99.90;;;;;;5016674;28;20440;-52
2023/05/21 08:17:24;;;;;;;15.33;11.87;;;22.40;99.90;;;;;;5016604;28;20241;-52
2023/05/21 08:19:49;;;;;;;14.90;10.77;;;22.60;99.90;;;;;;5017085;28;20845;-52
2023/05/21 08:22:15;;;;;;;19.10;11.63;;;22.70;99.90;;;;;;5017119;28;20178;-52
2023/05/21 08:24:40;;;;;;;13.43;9.50;;;22.70;99.90;;;;;;5016235;28;20268;-53
2023/05/21 08:27:06;;;;;;;14.50;10.87;;;22.80;99.90;;;;;;5017260;28;20650;-53
2023/05/21 08:29:32;;;;;;;16.50;11.10;;;22.90;99.90;;;;;;5016110;28;20586;-53
2023/05/21 08:31:58;;;;;;;15.60;12.20;;;22.80;99.90;;;;;;5020231;28;20240;-51
2023/05/21 08:34:23;;;;;;;14.80;11.87;;;22.70;99.90;;;;;;5016816;28;20481;-50
2023/05/21 08:36:49;;;;;;;15.70;11.50;;;22.80;99.90;;;;;;5016023;28;20183;-53
2023/05/21 08:39:15;;;;;;;19.53;12.53;;;22.70;99.90;;;;;;5020013;28;20185;-50
2023/05/21 08:41:43;;;;;;;18.70;13.90;;;22.70;99.90;;;;;;5021248;28;20206;-50
2023/05/21 08:44:12;;;;;;;16.80;12.93;;;22.40;99.90;;;;;;5020851;28;20214;-53
2023/05/21 08:46:40;;;;;;;14.37;12.17;;;22.30;99.90;;;;;;5015878;28;20506;-52
2023/05/21 08:49:11;;;;;;;16.87;11.90;;;22.50;99.90;;;;;;5016049;28;20429;-53
2023/05/21 08:51:38;;;;;;;14.43;11.87;;;22.70;99.90;;;;;;5016513;28;20500;-51
2023/05/21 08:54:04;;;;;;;16.90;12.70;;;22.80;99.90;;;;;;5015649;28;21066;-52
2023/05/21 08:56:33;;;;;;;16.80;12.70;;;22.80;99.90;;;;;;5016749;28;20483;-53
2023/05/21 08:59:00;;;;;;;24.07;13.70;;;22.70;99.90;;;;;;5015967;28;20448;-52
2023/05/21 09:01:26;;;;;;;14.03;11.67;;;22.70;99.90;;;;;;5019585;28;20441;-53
2023/05/21 09:03:56;;;;;;;15.40;11.73;;;22.70;99.90;;;;;;5019336;28;20607;-52
2023/05/21 09:06:24;;;;;;;14.30;12.77;;;22.70;99.90;;;;;;5016972;28;20491;-50
2023/05/21 09:09:13;;;;;;;13.30;11.70;;;22.70;99.90;;;;;;5016777;28;20452;-50
2023/05/21 09:11:41;;;;;;;19.80;12.80;;;22.70;99.90;;;;;;5016241;28;20941;-50
2023/05/21 09:14:07;;;;;;;18.27;11.70;;;22.60;99.90;;;;;;5015670;28;20516;-50
2023/05/21 09:16:32;;;;;;;15.50;12.00;;;22.60;99.90;;;;;;5016489;28;20438;-50
2023/05/21 09:18:58;;;;;;;16.00;12.70;;;22.70;99.90;;;;;;5015989;28;20791;-50
2023/05/21 09:21:25;;;;;;;17.23;12.67;;;22.70;99.90;;;;;;5015737;28;20286;-53
2023/05/21 09:23:58;;;;;;;17.03;13.33;;;22.60;99.90;;;;;;5015693;28;20683;-53
2023/05/21 09:26:25;;;;;;;14.40;12.90;;;22.70;99.90;;;;;;5015374;28;20462;-53
2023/05/21 09:28:55;;;;;;;19.00;14.13;;;22.70;99.90;;;;;;5016177;28;20448;-52
2023/05/21 09:31:22;;;;;;;18.00;14.90;;;22.90;99.90;;;;;;5016001;28;20516;-50
2023/05/21 09:33:48;;;;;;;15.93;13.93;;;23.00;99.90;;;;;;5016152;28;20822;-50
2023/05/21 09:36:16;;;;;;;16.70;12.63;;;23.00;99.90;;;;;;5017795;28;20448;-50
2023/05/21 09:38:44;;;;;;;20.60;13.27;;;23.00;99.90;;;;;;5019257;28;20733;-52
2023/05/21 09:41:09;;;;;;;18.00;13.20;;;23.00;99.90;;;;;;5020188;28;20535;-50
2023/05/21 09:43:35;;;;;;;17.47;13.00;;;23.10;99.90;;;;;;5019055;28;20932;-50
2023/05/21 09:46:01;;;;;;;16.80;13.40;;;23.30;99.90;;;;;;5019805;28;20182;-51
2023/05/21 09:48:42;;;;;;;15.37;13.13;;;23.70;99.90;;;;;;5019498;28;20925;-50
2023/05/21 09:51:19;;;;;;;21.37;13.30;;;23.80;99.90;;;;;;5018900;28;20247;-50
2023/05/21 09:53:56;;;;;;;19.03;12.10;;;24.00;99.90;;;;;;5019801;28;20940;-51
2023/05/21 09:56:30;;;;;;;17.97;13.17;;;24.20;99.90;;;;;;5019825;28;20445;-51
2023/05/21 09:58:59;;;;;;;17.80;13.33;;;24.40;99.90;;;;;;5026943;28;20436;-51
2023/05/21 10:01:25;;;;;;;16.83;12.83;;;24.60;99.90;;;;;;5020287;28;20496;-51
2023/05/21 10:03:56;;;;;;;16.93;14.20;;;24.90;99.90;;;;;;5024000;28;20476;-51
2023/05/21 10:06:25;;;;;;;19.87;13.90;;;25.40;99.90;;;;;;5019146;28;20448;-51
2023/05/21 10:08:54;;;;;;;18.07;13.43;;;25.80;99.90;;;;;;5019041;28;20436;-51
2023/05/21 10:11:25;;;;;;;17.67;14.33;;;25.80;99.90;;;;;;5018959;28;20446;-51
2023/05/21 10:14:07;;;;;;;23.97;14.40;;;26.10;99.90;;;;;;5018602;28;20487;-51
2023/05/21 10:16:34;;;;;;;19.37;12.43;;;25.90;99.90;;;;;;5019790;28;20466;-51
2023/05/21 10:19:01;;;;;;;20.93;13.50;;;25.90;99.90;;;;;;5019109;28;20439;-51
2023/05/21 10:21:27;;;;;;;15.60;13.70;;;26.00;99.90;;;;;;5018836;28;20529;-51
2023/05/21 10:23:56;;;;;;;16.93;13.80;;;26.20;99.90;;;;;;5019523;28;20817;-51
2023/05/21 10:26:23;;;;;;;22.43;13.63;;;26.40;99.90;;;;;;5018400;28;20842;-51
2023/05/21 10:28:53;;;;;;;15.13;13.40;;;26.60;99.90;;;;;;5018582;28;20440;-52
2023/05/21 10:31:19;;;;;;;16.57;13.70;;;26.90;99.90;;;;;;5018907;28;20485;-51
2023/05/21 10:33:44;;;;;;;18.03;13.10;;;27.10;99.90;;;;;;5022784;28;20848;-51
2023/05/21 10:36:11;;;;;;;15.13;13.53;;;27.00;99.90;;;;;;5023121;28;20195;-52
2023/05/21 10:38:37;;;;;;;16.40;12.93;;;27.10;99.90;;;;;;5020693;28;20192;-51
2023/05/21 10:41:05;;;;;;;15.17;13.50;;;27.40;99.90;;;;;;5019877;28;20438;-52
2023/05/21 10:44:02;;;;;;;14.70;11.80;;;27.70;99.90;;;;;;5021846;28;20512;-51
2023/05/21 10:46:42;;;;;;;15.33;11.30;;;28.10;99.90;;;;;;5018889;28;20524;-51
2023/05/21 10:49:37;;;;;;;16.90;11.97;;;28.30;99.90;;;;;;5018422;28;20952;-51
2023/05/21 10:52:15;;;;;;;13.33;11.90;;;28.20;99.90;;;;;;5021394;28;20474;-51
2023/05/21 10:54:41;;;;;;;18.20;13.20;;;27.90;99.90;;;;;;5018058;28;20445;-51
2023/05/21 10:57:13;;;;;;;14.47;12.33;;;28.00;99.90;;;;;;5018015;28;20527;-50
2023/05/21 10:59:45;;;;;;;14.37;11.80;;;28.20;99.90;;;;;;5021655;28;20450;-50
2023/05/21 11:02:14;;;;;;;14.87;12.00;;;28.60;99.90;;;;;;5019249;28;20844;-50
2023/05/21 11:04:43;;;;;;;13.97;11.30;;;28.70;99.90;;;;;;5018768;28;20483;-50
2023/05/21 11:07:11;;;;;;;13.57;10.80;;;29.20;99.90;;;;;;5018371;28;21167;-50
2023/05/21 11:09:37;;;;;;;15.77;11.10;;;29.60;99.90;;;;;;5018570;28;20857;-50
2023/05/21 11:12:03;;;;;;;12.07;10.77;;;29.80;99.90;;;;;;5017791;28;20443;-50
2023/05/21 11:14:40;;;;;;;13.73;11.10;;;29.90;99.90;;;;;;5022367;28;20485;-50
2023/05/21 11:17:11;;;;;;;11.13;10.03;;;30.10;99.90;;;;;;5021834;28;20438;-50
2023/05/21 11:19:49;;;;;;;14.10;10.80;;;30.60;99.90;;;;;;5021524;28;20447;-50
2023/05/21 11:22:23;;;;;;;14.33;9.70;;;30.70;99.90;;;;;;5017264;28;20438;-50
2023/05/21 11:24:49;;;;;;;14.33;10.20;;;30.60;99.90;;;;;;5018178;28;20569;-50
2023/05/21 11:27:40;;;;;;;12.60;10.63;;;30.60;99.90;;;;;;5017745;28;20521;-50
2023/05/21 11:30:13;;;;;;;12.20;10.53;;;30.30;99.90;;;;;;5017649;28;20435;-50
2023/05/21 11:33:00;;;;;;;13.47;10.60;;;30.30;99.90;;;;;;5017494;28;20485;-50
2023/05/21 11:35:26;;;;;;;11.23;10.13;;;30.00;99.90;;;;;;5018328;28;20455;-50
2023/05/21 11:37:55;;;;;;;11.80;10.60;;;30.20;99.90;;;;;;5018013;28;20431;-50
2023/05/21 11:40:25;;;;;;;13.60;10.37;;;30.30;99.90;;;;;;5017183;28;20438;-50
2023/05/21 11:42:52;;;;;;;15.87;11.20;;;30.70;99.90;;;;;;5017663;28;20426;-50
2023/05/21 11:45:20;;;;;;;10.23;9.10;;;30.70;99.90;;;;;;5017284;28;20487;-50
2023/05/21 11:47:48;;;;;;;12.17;10.20;;;30.80;99.90;;;;;;5017354;28;22116;-50
2023/05/21 11:50:14;;;;;;;13.53;10.50;;;30.70;99.90;;;;;;5017051;28;20544;-50
2023/05/21 11:52:41;;;;;;;10.50;9.40;;;30.70;99.90;;;;;;5020827;28;20457;-50
2023/05/21 11:55:07;;;;;;;12.70;11.40;;;30.60;99.90;;;;;;5016884;28;20438;-51
2023/05/21 11:57:33;;;;;;;14.50;9.40;;;30.50;99.90;;;;;;5016670;28;20934;-50
2023/05/21 12:00:00;;;;;;;13.57;10.20;;;30.60;99.90;;;;;;5017236;28;20441;-50
2023/05/21 12:02:31;;;;;;;13.13;9.10;;;31.00;99.90;;;;;;5020203;28;20647;-50
2023/05/21 12:04:59;;;;;;;13.73;10.10;;;31.10;99.90;;;;;;5017203;28;20481;-50
2023/05/21 12:07:28;;;;;;;11.67;9.30;;;31.10;99.90;;;;;;5017259;28;20442;-50
2023/05/21 12:09:54;;;;;;;12.37;10.20;;;31.00;99.90;;;;;;5016721;28;20443;-50
2023/05/21 12:12:21;;;;;;;10.87;9.60;;;31.10;99.90;;;;;;5019000;28;20455;-51
2023/05/21 12:14:49;;;;;;;13.40;9.40;;;31.00;99.90;;;;;;5017144;28;20439;-50
2023/05/21 12:17:20;;;;;;;11.50;9.03;;;31.00;99.90;;;;;;5017218;28;20522;-50
2023/05/21 12:19:47;;;;;;;13.33;10.37;;;30.80;99.90;;;;;;5017366;28;20501;-50
2023/05/21 12:22:16;;;;;;;14.80;10.07;;;30.60;99.90;;;;;;5016468;28;20844;-50
2023/05/21 12:24:42;;;;;;;15.10;11.33;;;30.10;99.90;;;;;;5016640;28;20518;-51
2023/05/21 12:27:11;;;;;;;11.73;10.50;;;29.80;99.90;;;;;;5016927;28;20521;-50
2023/05/21 12:29:41;;;;;;;13.27;9.77;;;29.60;99.90;;;;;;5020759;28;20493;-50
2023/05/21 12:32:09;;;;;;;15.63;11.90;;;29.30;99.90;;;;;;5016943;28;20466;-50
2023/05/21 12:34:45;;;;;;;12.63;11.00;;;29.20;99.90;;;;;;5016087;28;20438;-50
2023/05/21 12:37:31;;;;;;;11.90;10.50;;;28.90;99.90;;;;;;5017070;28;20481;-50
2023/05/21 12:40:03;;;;;;;14.43;10.83;;;28.90;99.90;;;;;;5016611;28;20440;-51
2023/05/21 12:42:34;;;;;;;13.13;10.80;;;29.00;99.90;;;;;;5016865;28;20430;-51